This is the latest recevied weather packets stored in our database for station/object IZ3TCG-13. If no packets are shown the sender has not sent any weather packets the latest 10 day(s).
| Time | Temp. | Humidity | Pressure | Rain* | Wind** | Luminosity | Snow |
|---|---|---|---|---|---|---|---|
| 1777182724 | 14.44° C | 79% | 1013.7 hPa | 0 mm | - | - | - |
| 1777181764 | 13.89° C | 82% | 1013.4 hPa | 0 mm | - | - | - |
| 1777179364 | 12.22° C | 89% | 1012.8 hPa | 0 mm | - | - | - |
| 1777176004 | 11.67° C | 93% | 1012.5 hPa | 0 mm | - | - | - |
| 1777173123 | 12.22° C | 94% | 1012.3 hPa | 0 mm | - | - | - |
| 1777171204 | 12.22° C | 94% | 1012.1 hPa | 0 mm | - | - | - |
| 1777170244 | 12.78° C | 94% | 1012.1 hPa | 0 mm | - | - | - |
| 1777168803 | 13.33° C | 93% | 1012.2 hPa | 0 mm | - | - | - |
| 1777165923 | 12.22° C | 96% | 1012.3 hPa | 0 mm | - | - | - |
| 1777165684 | 12.22° C | 96% | 1012.4 hPa | 0 mm | - | - | - |
| 1777163524 | 13.33° C | 93% | 1012.3 hPa | 0 mm | - | - | - |
| 1777163284 | 13.33° C | 93% | 1012.4 hPa | 0 mm | - | - | - |
| 1777160883 | 13.33° C | 92% | 1012.4 hPa | 0 mm | - | - | - |
| 1777159204 | 12.78° C | 91% | 1012.3 hPa | 0 mm | - | - | - |
| 1777158724 | 13.33° C | 91% | 1012.2 hPa | 0 mm | - | - | - |
| 1777158004 | 13.33° C | 89% | 1012.3 hPa | 0 mm | - | - | - |
| 1777157043 | 13.89° C | 87% | 1012.4 hPa | 0 mm | - | - | - |
| 1777155124 | 15.56° C | 82% | 1012.5 hPa | 0 mm | - | - | - |
| 1777152483 | 15.56° C | 78% | 1012.2 hPa | 0 mm | - | - | - |
| 1777151044 | 15.56° C | 78% | 1012.1 hPa | 0 mm | - | - | - |
| 1777146964 | 16.67° C | 72% | 1011.9 hPa | 0 mm | - | - | - |
| 1777146724 | 17.22° C | 71% | 1011.8 hPa | 0 mm | - | - | - |
| 1777144563 | 18.33° C | 67% | 1011.3 hPa | 0 mm | - | - | - |
| 1777142404 | 18.33° C | 71% | 1011.2 hPa | 0 mm | - | - | - |
* Rain latest hour (hover to see other rain measurements)
** Current wind speed in m/s (hover to see current wind gust speed)